Terminal Aerodrome Forecast
Issued by NWS

Home | Current Version | Previous Version | Text Only | Print | Product List | Glossary On
Versions: 1 2 3 4 5 6 7 8 9 10 11 12
000
FTUS44 KLIX 272300
TAFMCB
TAF
KMCB 272329Z 2800/2824 15009KT P6SM -RA OVC004
     FM280700 21006KT 3/4SM +SHRA OVC004
     FM281000 28007KT 3/4SM +SHRA OVC002
     FM281200 32008KT 3SM SHRA OVC002
     FM282100 36008KT 3SM SHRA OVC008=

USA.gov is the U.S. government's official web portal to all federal, state and local government web resources and services.